createdAt,value
2023-09-01T00:02:20.162Z,24.20
2023-09-01T00:07:23.861Z,24.15
2023-09-01T00:12:29.310Z,24.13
2023-09-01T00:17:33.018Z,24.13
2023-09-01T00:22:36.701Z,24.28
2023-09-01T00:27:42.027Z,24.67
2023-09-01T00:32:45.792Z,25.00
2023-09-01T00:37:49.480Z,25.15
2023-09-01T00:42:54.835Z,24.99
2023-09-01T00:47:59.206Z,24.71
2023-09-01T00:53:03.724Z,24.57
2023-09-01T00:58:09.044Z,24.66
2023-09-01T01:03:14.399Z,24.56
2023-09-01T01:08:32.402Z,24.42
2023-09-01T01:13:41.867Z,24.24
2023-09-01T01:18:47.965Z,24.16
2023-09-01T01:23:54.688Z,24.34
2023-09-01T01:28:58.345Z,24.25
2023-09-01T01:34:11.902Z,24.20
2023-09-01T01:39:22.400Z,24.31
2023-09-01T01:44:29.184Z,24.12
2023-09-01T01:49:33.172Z,23.99
2023-09-01T01:54:38.530Z,23.74
2023-09-01T01:59:42.153Z,23.82
2023-09-01T02:04:45.926Z,23.65
2023-09-01T02:09:51.423Z,23.43
2023-09-01T02:14:55.277Z,23.28
2023-09-01T02:19:59.159Z,23.22
2023-09-01T02:25:04.765Z,22.96
2023-09-01T02:30:09.617Z,22.79
2023-09-01T02:35:13.364Z,22.88
2023-09-01T02:40:18.693Z,22.84
2023-09-01T02:45:24.814Z,22.53
2023-09-01T02:50:29.121Z,22.04
2023-09-01T02:55:35.587Z,21.76
2023-09-01T03:00:39.379Z,21.23
2023-09-01T03:05:43.077Z,20.97
2023-09-01T03:10:48.429Z,20.81
2023-09-01T03:15:54.686Z,20.63
2023-09-01T03:21:09.657Z,20.95
2023-09-01T03:26:15.131Z,21.04
2023-09-01T03:31:19.090Z,21.02
2023-09-01T03:36:22.846Z,20.92
2023-09-01T03:41:28.281Z,20.66
2023-09-01T03:46:32.277Z,20.50
2023-09-01T03:51:35.995Z,20.42
2023-09-01T03:56:41.359Z,20.06
2023-09-01T04:01:44.324Z,20.03
2023-09-01T04:06:48.067Z,19.86
2023-09-01T04:11:54.377Z,19.73
2023-09-01T04:16:58.031Z,19.76
2023-09-01T04:22:01.700Z,19.48
2023-09-01T04:27:07.121Z,19.24
2023-09-01T04:32:10.800Z,19.20
2023-09-01T04:37:15.254Z,19.32
2023-09-01T04:42:20.645Z,19.41
2023-09-01T04:47:25.174Z,19.35
2023-09-01T04:52:41.027Z,19.32
2023-09-01T04:57:49.478Z,19.22
2023-09-01T05:02:53.217Z,19.28
2023-09-01T05:07:57.076Z,19.51
2023-09-01T05:13:02.492Z,19.44
2023-09-01T05:18:06.425Z,19.32
2023-09-01T05:23:10.142Z,19.27
2023-09-01T05:28:15.789Z,19.21
2023-09-01T05:33:19.614Z,19.15
2023-09-01T05:38:23.328Z,19.18
2023-09-01T05:43:28.630Z,19.02
2023-09-01T05:48:32.423Z,18.95
2023-09-01T05:53:36.136Z,18.98
2023-09-01T05:58:41.483Z,18.96
2023-09-01T06:03:45.210Z,19.01
2023-09-01T06:08:48.954Z,18.97
2023-09-01T06:13:55.173Z,18.93
2023-09-01T06:19:01.087Z,18.84
2023-09-01T06:24:05.026Z,18.64
2023-09-01T06:29:10.352Z,18.77
2023-09-01T06:34:14.020Z,18.82
2023-09-01T06:39:17.781Z,18.87
2023-09-01T06:44:23.193Z,18.74
2023-09-01T06:49:26.097Z,18.56
2023-09-01T06:54:29.892Z,18.42
2023-09-01T06:59:35.340Z,18.23
2023-09-01T07:04:38.960Z,18.15
2023-09-01T07:09:42.612Z,18.31
2023-09-01T07:14:47.905Z,18.34
2023-09-01T07:19:51.732Z,18.31
2023-09-01T07:24:55.621Z,18.25
2023-09-01T07:30:01.012Z,18.10
2023-09-01T07:35:04.880Z,18.10
2023-09-01T07:40:09.535Z,18.00
2023-09-01T07:45:15.112Z,17.97
2023-09-01T07:50:18.066Z,17.90
2023-09-01T07:55:21.892Z,17.81
2023-09-01T08:00:27.617Z,17.84
2023-09-01T08:05:31.305Z,17.94
2023-09-01T08:10:35.008Z,17.98
2023-09-01T08:15:40.335Z,17.97
2023-09-01T08:20:44.699Z,17.90
2023-09-01T08:25:48.386Z,17.87
2023-09-01T08:30:53.728Z,17.49
2023-09-01T08:35:57.526Z,17.46
2023-09-01T08:41:02.671Z,17.66
2023-09-01T08:46:15.124Z,17.57
2023-09-01T08:51:20.992Z,17.64
2023-09-01T08:56:24.869Z,17.57
2023-09-01T09:01:32.133Z,17.60
2023-09-01T09:06:37.323Z,17.40
2023-09-01T09:11:41.137Z,17.54
2023-09-01T09:16:55.425Z,17.35
2023-09-01T09:22:09.503Z,17.37
2023-09-01T09:27:17.058Z,17.17
2023-09-01T09:32:24.006Z,17.15
2023-09-01T09:37:27.728Z,17.01
2023-09-01T09:42:38.833Z,16.99
2023-09-01T09:47:45.288Z,16.86
2023-09-01T09:52:51.003Z,16.98
2023-09-01T09:57:56.530Z,16.88
2023-09-01T10:03:02.589Z,16.73
2023-09-01T10:08:08.185Z,16.70
2023-09-01T10:13:12.651Z,16.65
2023-09-01T10:18:19.576Z,16.59
2023-09-01T10:23:23.341Z,16.68
2023-09-01T10:28:27.151Z,16.54
2023-09-01T10:33:36.075Z,16.57
2023-09-01T10:38:40.132Z,16.48
2023-09-01T10:43:56.164Z,16.49
2023-09-01T10:49:02.084Z,16.39
2023-09-01T10:54:41.234Z,16.25
2023-09-01T10:59:44.920Z,16.13
2023-09-01T11:04:52.784Z,16.04
2023-09-01T11:09:56.475Z,16.20
2023-09-01T11:15:01.889Z,16.28
2023-09-01T11:20:08.776Z,16.28
2023-09-01T11:25:15.974Z,16.20
2023-09-01T11:30:21.090Z,16.17
2023-09-01T11:35:30.575Z,16.18
2023-09-01T11:40:35.378Z,16.00
2023-09-01T11:45:48.292Z,15.98
2023-09-01T11:50:54.668Z,16.04
2023-09-01T11:55:59.172Z,16.01
2023-09-01T12:01:10.483Z,16.11
2023-09-01T12:06:20.317Z,16.05
2023-09-01T12:11:24.093Z,16.00
2023-09-01T12:16:27.958Z,16.05
2023-09-01T12:21:34.024Z,15.95
2023-09-01T12:26:37.827Z,15.91
2023-09-01T12:31:41.715Z,15.88
2023-09-01T12:36:47.191Z,15.68
2023-09-01T12:41:51.023Z,15.65
2023-09-01T12:46:54.791Z,15.79
2023-09-01T12:52:00.518Z,15.81
2023-09-01T12:57:04.369Z,15.75
2023-09-01T13:02:08.230Z,15.92
2023-09-01T13:07:13.623Z,15.83
2023-09-01T13:12:17.515Z,15.83
2023-09-01T13:17:21.264Z,15.81
2023-09-01T13:22:26.653Z,15.70
2023-09-01T13:27:30.370Z,15.83
2023-09-01T13:32:34.154Z,15.65
2023-09-01T13:37:40.562Z,15.55
2023-09-01T13:42:44.343Z,15.65
2023-09-01T13:47:48.211Z,15.64
2023-09-01T13:52:53.632Z,15.87
2023-09-01T13:57:57.364Z,15.82
2023-09-01T14:03:01.181Z,15.67
2023-09-01T14:08:06.970Z,15.65
2023-09-01T14:13:10.721Z,15.82
2023-09-01T14:18:14.452Z,15.85
2023-09-01T14:23:19.926Z,15.95
2023-09-01T14:28:23.858Z,15.81
2023-09-01T14:33:41.438Z,15.85
2023-09-01T14:38:51.471Z,15.92
2023-09-01T14:43:55.341Z,16.11
2023-09-01T14:48:59.147Z,16.22
2023-09-01T14:54:05.844Z,16.57
2023-09-01T14:59:09.543Z,16.78
2023-09-01T15:04:13.338Z,17.35
2023-09-01T15:09:19.486Z,17.87
2023-09-01T15:14:23.391Z,18.31
2023-09-01T15:19:28.174Z,18.86
2023-09-01T15:24:33.564Z,19.48
2023-09-01T15:29:37.270Z,19.86
2023-09-01T15:34:40.962Z,20.29
2023-09-01T15:39:46.345Z,20.60
2023-09-01T15:44:50.085Z,20.98
2023-09-01T15:49:53.772Z,20.76
2023-09-01T15:55:00.252Z,20.88
2023-09-01T16:00:04.073Z,20.59
2023-09-01T16:05:08.150Z,20.37
2023-09-01T16:10:13.804Z,20.14
2023-09-01T16:15:17.604Z,19.94
2023-09-01T16:20:22.139Z,19.75
2023-09-01T16:25:27.582Z,19.71
2023-09-01T16:30:30.645Z,20.08
2023-09-01T16:35:54.156Z,20.13
2023-09-01T16:41:00.076Z,20.29
2023-09-01T16:46:04.026Z,20.46
2023-09-01T16:51:07.750Z,20.77
2023-09-01T16:56:14.143Z,20.86
2023-09-01T17:01:18.539Z,21.06
2023-09-01T17:06:22.300Z,21.14
2023-09-01T17:11:28.193Z,21.09
2023-09-01T17:16:31.966Z,21.95
2023-09-01T17:21:36.408Z,22.85
2023-09-01T17:26:41.862Z,23.63
2023-09-01T17:31:45.588Z,23.28
2023-09-01T17:36:49.297Z,23.92
2023-09-01T17:41:54.781Z,23.37
2023-09-01T17:46:58.514Z,24.12
2023-09-01T17:52:02.251Z,24.34
2023-09-01T17:57:07.943Z,24.51
2023-09-01T18:02:11.787Z,24.25
2023-09-01T18:07:15.637Z,24.68
2023-09-01T18:12:21.081Z,24.91
2023-09-01T18:17:25.238Z,25.03
2023-09-01T18:22:29.038Z,25.35
2023-09-01T18:27:34.508Z,25.84
2023-09-01T18:32:38.388Z,25.75
2023-09-01T18:37:45.344Z,26.03
2023-09-01T18:42:52.403Z,25.83
2023-09-01T18:47:56.231Z,25.79
2023-09-01T18:53:01.892Z,25.62
2023-09-01T18:58:10.152Z,25.27
2023-09-01T19:03:20.887Z,25.55
2023-09-01T19:08:25.763Z,25.58
2023-09-01T19:13:31.410Z,25.45
2023-09-01T19:18:38.939Z,25.61
2023-09-01T19:23:43.484Z,25.65
2023-09-01T19:28:49.350Z,26.40
2023-09-01T19:33:55.956Z,26.71
2023-09-01T19:39:01.573Z,26.75
2023-09-01T19:44:11.224Z,26.50
2023-09-01T19:49:16.191Z,26.37
2023-09-01T19:54:20.408Z,26.21
2023-09-01T19:59:26.012Z,25.62
2023-09-01T20:04:29.844Z,25.91
2023-09-01T20:09:33.587Z,25.50
2023-09-01T20:14:38.966Z,24.88
2023-09-01T20:19:45.015Z,24.81
2023-09-01T20:24:48.761Z,25.13
2023-09-01T20:29:54.308Z,25.12
2023-09-01T20:34:58.031Z,25.40
2023-09-01T20:40:01.772Z,25.45
2023-09-01T20:45:08.310Z,25.19
2023-09-01T20:50:12.499Z,25.04
2023-09-01T20:55:16.962Z,24.62
2023-09-01T21:00:22.840Z,24.70
2023-09-01T21:05:26.779Z,24.68
2023-09-01T21:10:30.508Z,24.59
2023-09-01T21:15:35.895Z,24.50
2023-09-01T21:20:39.640Z,24.29
2023-09-01T21:25:43.415Z,24.00
2023-09-01T21:30:48.809Z,24.20
2023-09-01T21:35:52.565Z,24.13
2023-09-01T21:40:56.302Z,24.08
2023-09-01T21:46:01.686Z,24.01
2023-09-01T21:51:05.509Z,23.93
2023-09-01T21:56:09.244Z,23.86
2023-09-01T22:01:15.679Z,23.50
2023-09-01T22:06:19.574Z,23.32
2023-09-01T22:11:23.351Z,22.98
2023-09-01T22:16:29.661Z,22.97
2023-09-01T22:21:33.473Z,22.89
2023-09-01T22:26:37.244Z,22.28
2023-09-01T22:31:42.657Z,22.58
2023-09-01T22:36:46.889Z,22.39
2023-09-01T22:41:50.679Z,21.86
2023-09-01T22:46:57.465Z,21.38
2023-09-01T22:52:01.320Z,21.05
2023-09-01T22:57:05.619Z,20.60
2023-09-01T23:02:11.310Z,20.41
2023-09-01T23:07:15.187Z,20.42
2023-09-01T23:12:18.920Z,20.46
2023-09-01T23:17:25.900Z,20.07
2023-09-01T23:22:29.670Z,20.05
2023-09-01T23:27:33.507Z,19.91
2023-09-01T23:32:39.043Z,19.88
2023-09-01T23:37:42.879Z,19.84
2023-09-01T23:42:46.731Z,19.84
2023-09-01T23:47:52.406Z,19.89
2023-09-01T23:52:56.302Z,20.05
2023-09-01T23:58:00.056Z,19.81
